METAR Formatted Surface Weather Observation
Issued by NWS

Home | Current Version | Previous Version | Text Only | Print | Product List | Glossary On
Versions: 1 2 3 4 5 6 7 8 9 10 11 12 13 14 15 16 17 18 19 20
424
SAUS41 KLWX 201444 COR
MTRRYT
SPECI KRYT 201437Z AUTO 00000KT -RA SCT010 BKN049 OVC055 02/02 A2992
RMK AO2 P0003 TSNO $



USA.gov is the U.S. government's official web portal to all federal, state and local government web resources and services.